Time;durP1;ratioP1;P1;durP2;ratioP2;P2;SDS_P1;SDS_P2;PMS_P1;PMS_P2;Temp;Humidity;BMP_temperature;BMP_pressure;BME280_temperature;BME280_humidity;BME280_pressure;Samples;Min_cycle;Max_cycle;Signal;HPM_P1;HPM_P2
2022/07/25 00:02:40;;;;;;;11.80;7.68;;;18.80;99.90;;;;;;7330523;32;20123;-64
2022/07/25 00:06:42;;;;;;;7.78;6.60;;;18.90;99.90;;;;;;7331554;32;20260;-64
2022/07/25 00:10:44;;;;;;;8.38;7.05;;;19.00;99.90;;;;;;7331124;32;20131;-64
2022/07/25 00:14:47;;;;;;;9.13;6.65;;;19.00;99.90;;;;;;7331644;32;20159;-63
2022/07/25 00:18:48;;;;;;;7.32;6.53;;;19.20;99.90;;;;;;7330879;32;20795;-64
2022/07/25 00:22:50;;;;;;;6.65;5.75;;;19.30;99.90;;;;;;7331350;32;20104;-63
2022/07/25 00:26:52;;;;;;;10.05;6.45;;;19.40;99.90;;;;;;7331848;32;20133;-64
2022/07/25 00:30:54;;;;;;;6.85;5.25;;;19.60;99.90;;;;;;7331030;32;20138;-63
2022/07/25 00:34:56;;;;;;;6.93;6.30;;;19.70;99.90;;;;;;7331938;32;20142;-64
2022/07/25 00:38:57;;;;;;;8.18;6.05;;;19.80;99.90;;;;;;7330618;32;20513;-64
2022/07/25 00:42:59;;;;;;;6.15;5.55;;;19.90;99.90;;;;;;7330952;32;20647;-63
2022/07/25 00:47:01;;;;;;;7.03;5.20;;;19.90;99.90;;;;;;7331134;32;20099;-64
2022/07/25 00:51:03;;;;;;;7.55;5.95;;;20.00;99.90;;;;;;7329904;32;20168;-64
2022/07/25 00:55:06;;;;;;;8.05;5.57;;;20.00;99.90;;;;;;7344447;32;20184;-63
2022/07/25 00:59:08;;;;;;;8.55;6.35;;;20.00;99.90;;;;;;7341584;32;20179;-63
2022/07/25 01:03:10;;;;;;;8.57;5.65;;;20.00;99.90;;;;;;7335844;32;20118;-62
2022/07/25 01:07:13;;;;;;;9.05;5.40;;;20.00;99.90;;;;;;7336899;32;20394;-62
2022/07/25 01:11:15;;;;;;;6.35;5.78;;;19.90;99.90;;;;;;7335514;32;20572;-61
2022/07/25 01:15:19;;;;;;;9.88;5.95;;;19.90;99.90;;;;;;7336379;32;20122;-63
2022/07/25 01:19:21;;;;;;;11.95;6.62;;;19.80;99.90;;;;;;7335651;32;20172;-62
2022/07/25 01:23:23;;;;;;;7.80;6.78;;;19.70;99.90;;;;;;7335904;32;20135;-61
2022/07/25 01:27:25;;;;;;;12.63;6.68;;;19.50;99.90;;;;;;7334493;32;20140;-63
2022/07/25 01:31:26;;;;;;;7.85;6.10;;;19.50;99.90;;;;;;7334958;32;20185;-63
2022/07/25 01:35:28;;;;;;;7.28;6.57;;;19.30;99.90;;;;;;7335816;32;20651;-63
2022/07/25 01:39:30;;;;;;;12.27;6.53;;;19.20;99.90;;;;;;7335251;32;20181;-63
2022/07/25 01:43:32;;;;;;;9.90;6.50;;;19.10;99.90;;;;;;7335598;32;20119;-63
2022/07/25 01:47:33;;;;;;;8.40;6.78;;;19.00;99.90;;;;;;7335126;32;20155;-62
2022/07/25 01:51:35;;;;;;;8.55;6.45;;;19.00;99.90;;;;;;7333959;32;20115;-63
2022/07/25 01:55:37;;;;;;;9.50;6.60;;;19.00;99.90;;;;;;7350109;32;20127;-63
2022/07/25 01:59:39;;;;;;;10.23;7.68;;;18.90;99.90;;;;;;7336663;32;20297;-63
2022/07/25 02:03:41;;;;;;;10.25;7.18;;;18.80;99.90;;;;;;7333902;32;20209;-64
2022/07/25 02:07:43;;;;;;;10.82;6.97;;;18.70;99.90;;;;;;7333827;32;20123;-63
2022/07/25 02:11:45;;;;;;;7.87;7.18;;;18.50;99.90;;;;;;7335296;32;20465;-64
2022/07/25 02:15:47;;;;;;;10.93;7.25;;;18.40;99.90;;;;;;7335097;32;20111;-63
2022/07/25 02:19:48;;;;;;;10.75;7.18;;;18.20;99.90;;;;;;7333848;32;20603;-63
2022/07/25 02:23:50;;;;;;;10.68;7.45;;;18.20;99.90;;;;;;7338534;32;20131;-63
2022/07/25 02:27:52;;;;;;;13.38;7.45;;;18.10;99.90;;;;;;7357229;32;20121;-63
2022/07/25 02:31:54;;;;;;;11.63;7.12;;;18.10;99.90;;;;;;7359203;32;20501;-63
2022/07/25 02:35:56;;;;;;;9.48;7.28;;;18.00;99.90;;;;;;7360158;32;20129;-62
2022/07/25 02:39:57;;;;;;;8.65;7.20;;;17.90;99.90;;;;;;7359761;32;20154;-63
2022/07/25 02:43:59;;;;;;;10.00;7.75;;;17.80;99.90;;;;;;7360097;32;20408;-63
2022/07/25 02:48:01;;;;;;;9.63;6.97;;;17.70;99.90;;;;;;7358987;32;20187;-61
2022/07/25 02:52:03;;;;;;;7.85;7.10;;;17.60;99.90;;;;;;7359773;32;20170;-62
2022/07/25 02:56:05;;;;;;;8.05;7.25;;;17.60;99.90;;;;;;7340507;32;20511;-63
2022/07/25 03:00:08;;;;;;;8.48;7.68;;;17.50;99.90;;;;;;7333540;32;20509;-62
2022/07/25 03:04:09;;;;;;;14.32;7.47;;;17.50;99.90;;;;;;7332440;32;20658;-63
2022/07/25 03:08:12;;;;;;;8.30;7.15;;;17.50;99.90;;;;;;7332760;32;20111;-62
2022/07/25 03:12:13;;;;;;;9.02;7.45;;;17.40;99.90;;;;;;7333572;32;20116;-63
2022/07/25 03:16:15;;;;;;;11.52;7.93;;;17.30;99.90;;;;;;7333488;32;20131;-63
2022/07/25 03:20:17;;;;;;;8.73;7.20;;;17.20;99.90;;;;;;7332579;32;20124;-63
2022/07/25 03:24:19;;;;;;;12.25;7.85;;;17.20;99.90;;;;;;7333510;32;20129;-62
2022/07/25 03:28:21;;;;;;;11.98;7.57;;;17.20;99.90;;;;;;7332441;32;20160;-62
2022/07/25 03:32:23;;;;;;;9.43;7.47;;;17.20;99.90;;;;;;7333141;32;20131;-63
2022/07/25 03:36:24;;;;;;;8.85;7.53;;;17.10;99.90;;;;;;7333232;32;20183;-63
2022/07/25 03:40:26;;;;;;;9.88;7.45;;;17.10;99.90;;;;;;7331909;32;20183;-63
2022/07/25 03:44:28;;;;;;;11.43;7.47;;;17.00;99.90;;;;;;7332694;32;20591;-63
2022/07/25 03:48:29;;;;;;;10.45;7.47;;;17.00;99.90;;;;;;7331954;32;20195;-63
2022/07/25 03:52:31;;;;;;;8.55;7.45;;;17.10;99.90;;;;;;7332412;32;20116;-63
2022/07/25 03:56:41;;;;;;;8.70;7.65;;;17.20;99.90;;;;;;7349162;32;20719;-62
2022/07/25 04:00:46;;;;;;;12.25;7.55;;;17.20;99.90;;;;;;7331415;32;20130;-63
2022/07/25 04:04:48;;;;;;;8.23;7.32;;;17.30;99.90;;;;;;7329922;32;20141;-63
2022/07/25 04:08:50;;;;;;;9.25;6.95;;;17.30;99.90;;;;;;7331582;32;20247;-63
2022/07/25 04:12:52;;;;;;;11.00;7.87;;;17.40;99.90;;;;;;7331479;32;20137;-63
2022/07/25 04:16:54;;;;;;;7.95;7.15;;;17.50;99.90;;;;;;7331772;32;20154;-63
2022/07/25 04:20:56;;;;;;;9.07;7.45;;;17.50;99.90;;;;;;7331099;32;20136;-63
2022/07/25 04:24:57;;;;;;;11.70;7.22;;;17.60;99.90;;;;;;7331355;32;20185;-63
2022/07/25 04:29:02;;;;;;;8.55;7.57;;;17.70;99.90;;;;;;7330839;32;20180;-63
2022/07/25 04:33:12;;;;;;;9.48;7.32;;;17.80;99.90;;;;;;7330373;32;20743;-63
2022/07/25 04:37:13;;;;;;;10.63;7.12;;;18.00;99.90;;;;;;7331781;32;20161;-63
2022/07/25 04:41:15;;;;;;;10.23;7.10;;;18.20;99.90;;;;;;7330591;32;20589;-62
2022/07/25 04:45:17;;;;;;;7.50;6.78;;;18.50;99.90;;;;;;7331220;32;20179;-62
2022/07/25 04:49:19;;;;;;;7.93;6.82;;;19.00;99.90;;;;;;7330469;32;20112;-66
2022/07/25 04:53:21;;;;;;;9.25;6.00;;;19.50;99.90;;;;;;7330716;32;20579;-66
2022/07/25 04:57:22;;;;;;;10.65;6.75;;;19.90;99.90;;;;;;7338774;32;20124;-66
2022/07/25 05:01:24;;;;;;;7.45;6.40;;;20.20;99.90;;;;;;7355441;32;20179;-66
2022/07/25 05:05:26;;;;;;;9.15;6.12;;;20.40;99.90;;;;;;7354792;32;20465;-67
2022/07/25 05:09:28;;;;;;;9.13;6.20;;;20.50;99.90;;;;;;7356006;32;20122;-67
2022/07/25 05:13:30;;;;;;;7.12;6.10;;;20.50;99.90;;;;;;7355814;32;20133;-67
2022/07/25 05:17:31;;;;;;;10.25;6.30;;;20.60;99.90;;;;;;7355455;32;20167;-67
2022/07/25 05:21:33;;;;;;;7.60;6.15;;;21.00;99.90;;;;;;7356301;32;20099;-67
2022/07/25 05:25:35;;;;;;;7.10;6.15;;;21.30;99.90;;;;;;7356435;32;20172;-67
2022/07/25 05:29:36;;;;;;;6.22;5.62;;;21.40;99.90;;;;;;7354804;32;20135;-67
2022/07/25 05:33:38;;;;;;;6.30;5.32;;;21.40;99.90;;;;;;7353466;32;20118;-67
2022/07/25 05:37:41;;;;;;;7.22;5.30;;;21.40;99.90;;;;;;7341729;32;20193;-67
2022/07/25 05:41:42;;;;;;;7.62;5.82;;;21.40;99.90;;;;;;7350283;32;20167;-68
2022/07/25 05:45:46;;;;;;;9.25;6.22;;;21.30;99.90;;;;;;7358919;32;20151;-68
2022/07/25 05:49:47;;;;;;;8.02;5.22;;;21.30;99.90;;;;;;7358486;32;20131;-66
2022/07/25 05:53:49;;;;;;;7.47;5.15;;;21.30;99.90;;;;;;7357313;32;20617;-68
2022/07/25 05:57:51;;;;;;;6.68;5.68;;;21.40;99.90;;;;;;7337385;32;20680;-68
2022/07/25 06:01:53;;;;;;;8.95;5.60;;;21.30;99.90;;;;;;7335314;32;20660;-67
2022/07/25 06:05:55;;;;;;;6.25;5.20;;;21.50;99.90;;;;;;7331493;32;20139;-67
2022/07/25 06:09:57;;;;;;;6.40;5.50;;;21.50;99.90;;;;;;7333870;32;20499;-67
2022/07/25 06:13:59;;;;;;;7.18;5.62;;;21.60;99.90;;;;;;7333380;32;20115;-65
2022/07/25 06:18:01;;;;;;;6.62;5.43;;;21.70;99.90;;;;;;7333354;32;20206;-67
2022/07/25 06:22:02;;;;;;;6.47;5.18;;;21.70;99.90;;;;;;7335481;32;20114;-66
2022/07/25 06:26:08;;;;;;;6.00;5.32;;;21.80;99.90;;;;;;7335909;32;20704;-67
2022/07/25 06:30:13;;;;;;;7.10;5.05;;;21.90;99.90;;;;;;7334189;32;20156;-67
2022/07/25 06:34:20;;;;;;;6.05;4.70;;;22.50;99.90;;;;;;7334348;32;20202;-66
2022/07/25 06:38:26;;;;;;;7.87;5.22;;;23.20;99.90;;;;;;7333077;32;20111;-67
2022/07/25 06:42:30;;;;;;;9.52;5.43;;;24.30;99.90;;;;;;7334192;32;20173;-67
2022/07/25 06:46:31;;;;;;;6.30;5.10;;;25.50;99.90;;;;;;7334135;32;20263;-67
2022/07/25 06:50:33;;;;;;;7.43;5.00;;;26.10;99.90;;;;;;7332525;32;20135;-64
2022/07/25 06:54:35;;;;;;;8.70;5.18;;;26.20;99.90;;;;;;7340753;32;20106;-64
2022/07/25 06:58:37;;;;;;;8.35;4.85;;;26.10;99.90;;;;;;7342347;32;20148;-64
2022/07/25 07:02:48;;;;;;;7.22;4.97;;;26.10;99.90;;;;;;7332550;32;20168;-64
2022/07/25 07:06:49;;;;;;;6.07;4.93;;;26.00;99.90;;;;;;7333142;32;20112;-65
2022/07/25 07:10:51;;;;;;;10.00;5.28;;;25.90;99.90;;;;;;7332657;32;20245;-65
2022/07/25 07:14:53;;;;;;;7.20;5.03;;;25.90;99.90;;;;;;7332801;32;20272;-65
2022/07/25 07:18:55;;;;;;;9.02;5.37;;;25.90;99.90;;;;;;7332626;32;20175;-65
2022/07/25 07:22:57;;;;;;;7.15;4.85;;;25.70;99.90;;;;;;7333382;32;20108;-64
2022/07/25 07:26:59;;;;;;;6.90;5.05;;;25.70;99.90;;;;;;7333306;32;20134;-64
2022/07/25 07:31:00;;;;;;;6.32;4.93;;;25.60;99.90;;;;;;7332634;32;20176;-64
2022/07/25 07:35:24;;;;;;;6.60;5.30;;;25.70;99.90;;;;;;7333391;32;20107;-64
2022/07/25 07:39:28;;;;;;;6.65;5.50;;;26.00;99.90;;;;;;7331706;32;20422;-65
2022/07/25 07:43:30;;;;;;;8.10;5.75;;;26.10;99.90;;;;;;7331829;32;20160;-65
2022/07/25 07:47:39;;;;;;;6.85;5.53;;;26.20;99.90;;;;;;7332160;32;20103;-64
2022/07/25 07:51:41;;;;;;;7.70;5.62;;;26.40;99.90;;;;;;7332393;32;20202;-64
2022/07/25 07:55:43;;;;;;;7.95;5.30;;;26.60;99.90;;;;;;7347219;32;20103;-64
2022/07/25 07:59:45;;;;;;;6.97;5.20;;;26.50;99.90;;;;;;7333655;32;20130;-64
2022/07/25 08:03:46;;;;;;;6.22;5.62;;;26.40;99.90;;;;;;7330307;32;20169;-64
2022/07/25 08:07:50;;;;;;;7.80;5.53;;;26.20;99.90;;;;;;7331488;32;20495;-64
2022/07/25 08:11:52;;;;;;;7.12;5.25;;;26.30;99.90;;;;;;7332176;32;20111;-64
2022/07/25 08:15:56;;;;;;;9.80;5.90;;;26.40;99.90;;;;;;7331114;32;20603;-64
2022/07/25 08:19:58;;;;;;;9.38;5.55;;;26.50;99.90;;;;;;7330649;32;20160;-64
2022/07/25 08:24:20;;;;;;;8.82;5.18;;;26.50;99.90;;;;;;7331895;32;20108;-65
2022/07/25 08:28:22;;;;;;;7.87;5.72;;;26.40;99.90;;;;;;7330829;32;20145;-64
2022/07/25 08:32:24;;;;;;;9.40;5.22;;;26.50;99.90;;;;;;7331162;32;20114;-64
2022/07/25 08:36:25;;;;;;;10.73;5.37;;;26.70;99.90;;;;;;7331854;32;20116;-65
2022/07/25 08:40:28;;;;;;;6.43;5.20;;;26.60;99.90;;;;;;7330431;32;20168;-65
2022/07/25 08:44:35;;;;;;;8.68;4.82;;;26.50;99.90;;;;;;7330779;32;20172;-65
2022/07/25 08:48:37;;;;;;;6.70;4.80;;;26.40;99.90;;;;;;7337212;32;20142;-62
2022/07/25 08:52:46;;;;;;;8.50;5.00;;;26.30;99.90;;;;;;7356898;32;20112;-62
2022/07/25 08:56:48;;;;;;;6.00;5.40;;;26.40;99.90;;;;;;7351312;32;20525;-63
2022/07/25 09:00:49;;;;;;;8.25;4.93;;;26.40;99.90;;;;;;7329388;32;20156;-63
2022/07/25 09:04:52;;;;;;;6.37;4.60;;;26.30;99.90;;;;;;7330288;32;20261;-62
2022/07/25 09:08:59;;;;;;;7.18;4.50;;;26.70;99.90;;;;;;7329107;32;20567;-62
2022/07/25 09:13:07;;;;;;;6.68;4.30;;;27.60;99.90;;;;;;7330365;32;20193;-63
2022/07/25 09:17:09;;;;;;;6.80;4.55;;;28.80;99.90;;;;;;7333276;32;20640;-63
2022/07/25 09:21:24;;;;;;;5.28;4.68;;;29.80;99.90;;;;;;7334366;32;20131;-63
2022/07/25 09:25:30;;;;;;;5.68;4.87;;;29.70;98.50;;;;;;7335364;32;20165;-63
2022/07/25 09:29:32;;;;;;;7.07;4.57;;;30.00;99.40;;;;;;7335014;32;20210;-63
2022/07/25 09:33:51;;;;;;;5.53;4.47;;;30.10;99.70;;;;;;7334548;32;20515;-63
2022/07/25 09:37:52;;;;;;;6.57;5.25;;;30.20;97.00;;;;;;7334620;32;20179;-63
2022/07/25 09:41:54;;;;;;;7.95;5.22;;;30.30;97.30;;;;;;7335242;32;20115;-63
2022/07/25 09:46:00;;;;;;;9.05;5.45;;;30.40;97.10;;;;;;7335031;32;20152;-63
2022/07/25 09:50:04;;;;;;;7.47;5.20;;;30.40;96.20;;;;;;7333577;32;20207;-63
2022/07/25 09:54:06;;;;;;;6.22;5.12;;;30.10;96.60;;;;;;7338777;32;20138;-62
2022/07/25 09:58:08;;;;;;;6.07;5.50;;;30.00;97.30;;;;;;7345702;32;20120;-63
2022/07/25 10:03:02;;;;;;;11.32;5.45;;;30.00;96.80;;;;;;7333427;32;20119;-62
2022/07/25 10:07:09;;;;;;;11.25;5.32;;;29.10;98.00;;;;;;7333136;32;20445;-62
2022/07/25 10:11:24;;;;;;;5.67;5.03;;;28.30;99.80;;;;;;7334153;32;20115;-63
2022/07/25 10:15:27;;;;;;;8.80;4.85;;;27.60;99.90;;;;;;7334862;32;20142;-63
2022/07/25 10:19:44;;;;;;;8.20;5.15;;;26.90;99.90;;;;;;7333289;32;20528;-62
2022/07/25 10:24:05;;;;;;;8.82;4.95;;;26.60;99.90;;;;;;7334187;32;20273;-62
2022/07/25 10:28:08;;;;;;;5.50;4.30;;;26.20;99.90;;;;;;7333275;32;20150;-62
2022/07/25 10:32:11;;;;;;;7.65;4.55;;;25.90;99.90;;;;;;7334480;32;20151;-62
2022/07/25 10:36:13;;;;;;;8.02;4.32;;;25.70;99.90;;;;;;7333866;32;20115;-62
2022/07/25 10:40:47;;;;;;;5.57;3.75;;;25.60;99.90;;;;;;7332859;32;20111;-62
2022/07/25 10:44:56;;;;;;;6.60;4.25;;;25.80;99.90;;;;;;7315529;32;20305;-62
2022/07/25 10:48:59;;;;;;;6.93;3.72;;;26.70;99.90;;;;;;7333453;32;20319;-62
2022/07/25 10:53:06;;;;;;;5.53;3.80;;;27.40;99.90;;;;;;7333587;32;20136;-62
2022/07/25 10:57:14;;;;;;;5.65;2.65;;;27.80;99.10;;;;;;7350678;32;20140;-62
2022/07/25 11:01:33;;;;;;;5.43;3.25;;;28.40;96.60;;;;;;7333147;32;20115;-63
2022/07/25 11:05:44;;;;;;;4.07;2.60;;;28.30;99.00;;;;;;7333408;32;20128;-63
2022/07/25 11:09:56;;;;;;;7.15;2.90;;;28.70;97.50;;;;;;7332129;32;20135;-63
2022/07/25 11:13:58;;;;;;;4.60;2.80;;;29.00;96.30;;;;;;7333412;32;20160;-63
2022/07/25 11:17:59;;;;;;;6.37;2.92;;;29.00;95.70;;;;;;7332688;32;20247;-63
2022/07/25 11:22:04;;;;;;;6.22;3.03;;;28.40;96.60;;;;;;7332862;32;20168;-63
2022/07/25 11:26:11;;;;;;;4.97;2.85;;;28.40;96.30;;;;;;7332527;32;20183;-63
2022/07/25 11:30:29;;;;;;;5.47;3.03;;;28.40;97.00;;;;;;7331930;32;20111;-63
2022/07/25 11:34:37;;;;;;;4.78;3.28;;;28.80;98.00;;;;;;7332811;32;20115;-63
2022/07/25 11:38:40;;;;;;;5.43;2.85;;;28.70;97.20;;;;;;7331430;32;20131;-63
2022/07/25 11:42:51;;;;;;;3.53;2.50;;;28.70;95.10;;;;;;7334361;32;20259;-63
2022/07/25 11:46:53;;;;;;;6.82;2.83;;;28.50;96.50;;;;;;7334713;32;20124;-63
2022/07/25 11:50:54;;;;;;;5.90;2.72;;;28.20;95.70;;;;;;7333594;32;20173;-63
2022/07/25 11:55:05;;;;;;;3.42;2.45;;;28.00;96.70;;;;;;7343514;32;20271;-63
2022/07/25 11:59:07;;;;;;;4.57;2.90;;;27.90;98.00;;;;;;7339396;32;20496;-63
2022/07/25 12:03:12;;;;;;;3.95;2.72;;;28.10;95.00;;;;;;7333804;32;20107;-63
2022/07/25 12:07:20;;;;;;;7.55;3.00;;;28.00;97.60;;;;;;7333739;32;20206;-62
2022/07/25 12:11:23;;;;;;;4.90;3.03;;;28.10;96.50;;;;;;7331624;32;20262;-62
2022/07/25 12:15:28;;;;;;;4.37;2.65;;;28.10;95.90;;;;;;7333258;32;20573;-63
2022/07/25 12:19:31;;;;;;;8.57;3.25;;;27.80;96.90;;;;;;7332928;32;20127;-67
2022/07/25 12:23:33;;;;;;;4.90;2.80;;;27.60;97.90;;;;;;7333806;32;20307;-63
2022/07/25 12:27:35;;;;;;;4.25;2.62;;;27.70;98.70;;;;;;7333465;32;20143;-62
2022/07/25 12:31:36;;;;;;;7.07;2.78;;;28.00;99.80;;;;;;7333297;32;20131;-64
2022/07/25 12:35:42;;;;;;;8.70;3.03;;;28.10;97.90;;;;;;7333699;32;20111;-62
2022/07/25 12:39:44;;;;;;;5.95;2.55;;;28.10;99.90;;;;;;7332761;32;20499;-71
2022/07/25 12:43:46;;;;;;;4.25;2.30;;;28.00;98.80;;;;;;7332968;32;20692;-63
2022/07/25 12:47:48;;;;;;;12.65;2.33;;;27.70;99.90;;;;;;7332890;32;20114;-64
2022/07/25 12:51:49;;;;;;;3.00;1.70;;;27.40;99.90;;;;;;7332910;32;20670;-64
2022/07/25 12:55:58;;;;;;;3.60;2.35;;;27.20;99.90;;;;;;7349994;32;20111;-62
2022/07/25 13:00:00;;;;;;;6.65;2.03;;;27.00;99.90;;;;;;7333066;32;20123;-69
2022/07/25 13:04:05;;;;;;;5.68;2.42;;;26.90;99.90;;;;;;7333013;32;20198;-62
2022/07/25 13:08:14;;;;;;;5.60;2.03;;;26.90;99.90;;;;;;7332699;32;20539;-63
2022/07/25 13:12:16;;;;;;;6.82;2.40;;;26.90;99.90;;;;;;7332482;32;20677;-64
2022/07/25 13:16:18;;;;;;;10.00;2.40;;;26.90;99.90;;;;;;7333378;32;20128;-63
2022/07/25 13:20:20;;;;;;;6.10;2.00;;;26.70;99.90;;;;;;7331774;32;20487;-69
2022/07/25 13:24:22;;;;;;;8.85;2.25;;;26.60;99.90;;;;;;7332894;32;20270;-63
2022/07/25 13:28:24;;;;;;;5.07;1.90;;;26.90;99.90;;;;;;7332210;32;20138;-63
2022/07/25 13:32:27;;;;;;;4.70;1.55;;;27.30;99.90;;;;;;7332622;32;20149;-64
2022/07/25 13:36:28;;;;;;;4.20;1.80;;;27.40;99.90;;;;;;7332212;32;20250;-63
2022/07/25 13:40:31;;;;;;;5.55;1.73;;;28.00;99.90;;;;;;7331572;32;20229;-66
2022/07/25 13:44:33;;;;;;;4.45;1.83;;;27.70;99.90;;;;;;7332282;32;20552;-62
2022/07/25 13:48:36;;;;;;;3.83;1.12;;;27.20;99.90;;;;;;7331859;32;20183;-70
2022/07/25 13:52:37;;;;;;;3.12;1.67;;;27.00;99.90;;;;;;7332180;32;20195;-63
2022/07/25 13:56:40;;;;;;;3.15;1.80;;;26.60;99.90;;;;;;7349929;32;20180;-63
2022/07/25 14:00:42;;;;;;;5.35;1.42;;;26.50;99.90;;;;;;7331367;32;20198;-63
2022/07/25 14:04:45;;;;;;;4.22;1.60;;;26.40;99.90;;;;;;7335820;32;20135;-63
2022/07/25 14:08:46;;;;;;;3.03;1.60;;;26.40;99.90;;;;;;7360721;32;20139;-69
2022/07/25 14:12:49;;;;;;;4.18;1.58;;;26.40;99.90;;;;;;7361993;32;20115;-63
2022/07/25 14:16:51;;;;;;;4.12;1.70;;;26.30;99.90;;;;;;7362632;32;20473;-64
2022/07/25 14:20:54;;;;;;;4.53;1.42;;;26.20;99.90;;;;;;7361185;32;20158;-63
2022/07/25 14:24:55;;;;;;;4.90;1.90;;;26.30;99.90;;;;;;7361867;32;20537;-63
2022/07/25 14:28:57;;;;;;;3.22;1.30;;;26.30;99.90;;;;;;7361408;32;20186;-67
2022/07/25 14:32:59;;;;;;;4.37;1.37;;;26.20;99.90;;;;;;7361964;32;20112;-63
2022/07/25 14:37:02;;;;;;;3.78;1.52;;;26.00;99.90;;;;;;7361627;32;20161;-71
2022/07/25 14:41:04;;;;;;;3.40;1.40;;;25.90;99.90;;;;;;7360245;32;20163;-63
2022/07/25 14:45:14;;;;;;;5.45;1.60;;;25.70;99.90;;;;;;7361793;32;20111;-62
2022/07/25 14:49:16;;;;;;;3.53;1.83;;;25.60;99.90;;;;;;7360668;32;20164;-70
2022/07/25 14:53:18;;;;;;;5.82;1.87;;;25.40;99.90;;;;;;7360504;32;20174;-64
2022/07/25 14:57:20;;;;;;;6.65;2.25;;;25.30;99.90;;;;;;7335586;32;20103;-64
2022/07/25 15:01:24;;;;;;;5.75;2.00;;;25.20;99.90;;;;;;7334862;32;20116;-63
2022/07/25 15:05:26;;;;;;;6.20;1.77;;;25.20;99.90;;;;;;7335147;32;20111;-62
2022/07/25 15:09:31;;;;;;;4.35;1.70;;;25.00;99.90;;;;;;7329450;32;20115;-63
2022/07/25 15:13:33;;;;;;;4.00;1.80;;;25.00;99.90;;;;;;7329766;32;20180;-62
2022/07/25 15:17:36;;;;;;;7.72;2.45;;;25.00;99.90;;;;;;7330092;32;20192;-69
2022/07/25 15:21:38;;;;;;;6.35;1.85;;;24.80;99.90;;;;;;7329322;32;20115;-63
2022/07/25 15:25:40;;;;;;;7.90;2.95;;;24.60;99.90;;;;;;7330966;32;20186;-63
2022/07/25 15:30:02;;;;;;;11.73;2.25;;;24.40;99.90;;;;;;7329383;32;20536;-63
2022/07/25 15:34:04;;;;;;;8.23;2.22;;;24.20;99.90;;;;;;7330023;32;20184;-63
2022/07/25 15:38:06;;;;;;;6.22;2.10;;;24.00;99.90;;;;;;7334247;32;20142;-64
2022/07/25 15:42:08;;;;;;;4.60;1.92;;;23.80;99.90;;;;;;7334229;32;20560;-64
2022/07/25 15:46:12;;;;;;;7.80;2.40;;;23.50;99.90;;;;;;7334089;32;20111;-64
2022/07/25 15:50:14;;;;;;;6.45;2.00;;;23.40;99.90;;;;;;7334043;32;20146;-70
2022/07/25 15:54:16;;;;;;;3.87;1.52;;;23.60;99.90;;;;;;7339644;32;20565;-63
2022/07/25 15:58:18;;;;;;;3.40;1.15;;;23.60;99.90;;;;;;7345086;32;20128;-63
2022/07/25 16:02:19;;;;;;;5.10;1.65;;;23.60;99.90;;;;;;7334142;32;20511;-62
2022/07/25 16:06:21;;;;;;;6.12;1.58;;;24.10;99.90;;;;;;7334239;32;20745;-62
2022/07/25 16:10:23;;;;;;;5.68;1.52;;;24.30;99.90;;;;;;7333130;32;20194;-69
2022/07/25 16:14:25;;;;;;;9.57;1.40;;;24.60;99.90;;;;;;7333604;32;20143;-62
2022/07/25 16:18:26;;;;;;;4.95;1.50;;;24.90;99.90;;;;;;7333436;32;20167;-65
2022/07/25 16:22:28;;;;;;;4.25;1.42;;;24.90;99.90;;;;;;7333839;32;20184;-62
2022/07/25 16:26:30;;;;;;;3.17;1.10;;;24.90;99.90;;;;;;7333098;32;20195;-62
2022/07/25 16:30:31;;;;;;;4.35;1.37;;;24.80;99.90;;;;;;7331531;32;20452;-62
2022/07/25 16:34:33;;;;;;;5.87;1.40;;;24.60;99.90;;;;;;7333636;32;20210;-64
2022/07/25 16:38:35;;;;;;;5.18;1.60;;;24.50;99.90;;;;;;7332355;32;20183;-68
2022/07/25 16:42:37;;;;;;;4.20;1.20;;;24.60;99.90;;;;;;7332962;32;20246;-63
2022/07/25 16:46:40;;;;;;;5.35;1.50;;;24.50;99.90;;;;;;7333228;32;20160;-62
2022/07/25 16:50:41;;;;;;;2.80;1.60;;;24.30;99.90;;;;;;7331840;32;20462;-64
2022/07/25 16:54:43;;;;;;;5.95;1.48;;;24.10;99.90;;;;;;7341339;32;20205;-62
2022/07/25 16:58:45;;;;;;;5.03;1.40;;;24.00;99.90;;;;;;7339787;32;20168;-66
2022/07/25 17:02:48;;;;;;;5.75;1.60;;;23.80;99.90;;;;;;7332803;32;20461;-63
2022/07/25 17:06:50;;;;;;;6.12;1.42;;;23.70;99.90;;;;;;7332351;32;20129;-71
2022/07/25 17:10:53;;;;;;;4.97;1.62;;;23.60;99.90;;;;;;7331024;32;20107;-62
2022/07/25 17:14:55;;;;;;;4.03;1.45;;;23.70;99.90;;;;;;7332089;32;20567;-63
2022/07/25 17:18:57;;;;;;;7.95;1.95;;;23.70;99.90;;;;;;7331305;32;20169;-64
2022/07/25 17:22:59;;;;;;;5.43;1.52;;;23.90;99.90;;;;;;7331870;32;20226;-63
2022/07/25 17:27:01;;;;;;;6.37;1.60;;;23.80;99.90;;;;;;7331495;32;20469;-67
2022/07/25 17:31:03;;;;;;;5.40;1.55;;;23.80;99.90;;;;;;7331183;32;20108;-63
2022/07/25 17:35:05;;;;;;;8.70;1.50;;;23.80;99.90;;;;;;7332477;32;20119;-64
2022/07/25 17:39:07;;;;;;;7.87;1.73;;;23.80;99.90;;;;;;7336441;32;20129;-63
2022/07/25 17:43:09;;;;;;;6.68;1.80;;;23.80;99.90;;;;;;7336659;32;20768;-63
2022/07/25 17:47:11;;;;;;;4.43;1.27;;;23.90;99.90;;;;;;7337155;32;20131;-63
2022/07/25 17:51:13;;;;;;;5.60;1.50;;;23.80;99.90;;;;;;7336172;32;20220;-63
2022/07/25 17:55:15;;;;;;;7.25;1.62;;;23.80;99.90;;;;;;7349371;32;20131;-71
2022/07/25 17:59:18;;;;;;;5.37;1.33;;;23.80;99.90;;;;;;7340749;32;20104;-63
2022/07/25 18:03:19;;;;;;;6.47;1.42;;;24.00;99.90;;;;;;7336133;32;20127;-63
2022/07/25 18:07:21;;;;;;;3.12;0.90;;;24.00;99.90;;;;;;7337681;32;20138;-64
2022/07/25 18:11:23;;;;;;;4.78;1.42;;;23.90;99.90;;;;;;7336264;32;20206;-64
2022/07/25 18:15:25;;;;;;;4.60;1.10;;;23.80;99.90;;;;;;7336594;32;20512;-71
2022/07/25 18:19:27;;;;;;;5.43;0.88;;;23.60;99.90;;;;;;7335745;32;20119;-64
2022/07/25 18:23:29;;;;;;;9.73;1.10;;;23.60;99.90;;;;;;7336447;32;20135;-65
2022/07/25 18:27:31;;;;;;;3.45;0.90;;;23.60;99.90;;;;;;7336569;32;20274;-64
2022/07/25 18:31:33;;;;;;;5.18;1.00;;;23.50;99.90;;;;;;7335818;32;20568;-63
2022/07/25 18:35:35;;;;;;;5.00;0.98;;;23.30;99.90;;;;;;7336067;32;20569;-64
2022/07/25 18:39:37;;;;;;;4.80;0.60;;;23.20;99.90;;;;;;7335888;32;20184;-64
2022/07/25 18:43:38;;;;;;;3.62;0.60;;;23.10;99.90;;;;;;7335721;32;20528;-70
2022/07/25 18:47:42;;;;;;;4.35;0.88;;;23.00;99.90;;;;;;7334638;32;20104;-64
2022/07/25 18:51:44;;;;;;;3.80;0.68;;;22.90;99.90;;;;;;7335524;32;20676;-63
2022/07/25 18:55:45;;;;;;;9.82;1.08;;;22.80;99.90;;;;;;7350940;32;20176;-63
2022/07/25 18:59:47;;;;;;;3.55;1.00;;;22.70;99.90;;;;;;7337143;32;20129;-63
2022/07/25 19:03:49;;;;;;;3.85;0.77;;;22.70;99.90;;;;;;7335405;32;20180;-70
2022/07/25 19:07:51;;;;;;;5.30;0.80;;;22.60;99.90;;;;;;7335155;32;20145;-64
2022/07/25 19:11:55;;;;;;;6.18;1.10;;;22.40;99.90;;;;;;7335605;32;20157;-64
2022/07/25 19:15:57;;;;;;;3.47;0.57;;;22.20;99.90;;;;;;7335753;32;20161;-65
2022/07/25 19:19:59;;;;;;;3.75;0.70;;;22.10;99.90;;;;;;7334489;32;20100;-64
2022/07/25 19:24:02;;;;;;;2.87;0.60;;;22.10;99.90;;;;;;7334595;32;20123;-64
2022/07/25 19:28:04;;;;;;;3.25;0.60;;;21.90;99.90;;;;;;7333934;32;20247;-63
2022/07/25 19:32:06;;;;;;;1.55;0.57;;;21.80;99.90;;;;;;7335270;32;20134;-64
2022/07/25 19:36:08;;;;;;;4.32;0.55;;;21.70;99.90;;;;;;7334579;32;20168;-63
2022/07/25 19:40:10;;;;;;;3.92;1.20;;;21.60;99.90;;;;;;7333932;32;20132;-64
2022/07/25 19:44:12;;;;;;;2.28;0.50;;;21.50;99.90;;;;;;7335004;32;20111;-62
2022/07/25 19:48:14;;;;;;;5.47;0.50;;;21.50;99.90;;;;;;7334377;32;20645;-62
2022/07/25 19:52:16;;;;;;;2.17;0.50;;;21.40;99.90;;;;;;7334208;32;20549;-62
2022/07/25 19:56:18;;;;;;;3.33;0.50;;;21.30;99.90;;;;;;7352074;32;20535;-62
2022/07/25 20:00:20;;;;;;;2.35;0.70;;;21.20;99.90;;;;;;7333649;32;20175;-62
2022/07/25 20:04:22;;;;;;;2.75;0.50;;;21.20;99.90;;;;;;7335059;32;20130;-61
2022/07/25 20:08:23;;;;;;;7.50;0.80;;;21.20;99.90;;;;;;7333277;32;20234;-61
2022/07/25 20:12:25;;;;;;;3.95;0.77;;;21.00;99.90;;;;;;7334645;32;20133;-62
2022/07/25 20:16:27;;;;;;;6.28;0.68;;;21.00;99.90;;;;;;7334595;32;20742;-62
2022/07/25 20:20:29;;;;;;;2.65;0.80;;;20.90;99.90;;;;;;7333952;32;20144;-62
2022/07/25 20:24:31;;;;;;;2.08;0.60;;;20.90;99.90;;;;;;7334199;32;20773;-62
2022/07/25 20:28:33;;;;;;;4.03;0.77;;;20.90;99.90;;;;;;7333300;32;20518;-62
2022/07/25 20:32:35;;;;;;;2.55;0.68;;;20.80;99.90;;;;;;7334344;32;20171;-62
2022/07/25 20:36:37;;;;;;;4.22;0.68;;;20.80;99.90;;;;;;7334447;32;20188;-63
2022/07/25 20:40:40;;;;;;;6.00;0.68;;;20.80;99.90;;;;;;7333326;32;20199;-62
2022/07/25 20:44:49;;;;;;;5.50;0.60;;;20.80;99.90;;;;;;7333829;32;20107;-62
2022/07/25 20:48:50;;;;;;;2.55;0.65;;;20.70;99.90;;;;;;7333198;32;20548;-62
2022/07/25 20:52:52;;;;;;;3.80;0.50;;;20.70;99.90;;;;;;7334024;32;20160;-62
2022/07/25 20:56:54;;;;;;;1.67;0.68;;;20.60;99.90;;;;;;7350809;32;20218;-61
2022/07/25 21:00:56;;;;;;;4.90;0.55;;;20.40;99.90;;;;;;7332834;32;20414;-62
2022/07/25 21:04:57;;;;;;;2.05;0.40;;;20.40;99.90;;;;;;7334463;32;20104;-62